createdAt,value
2018-04-27T10:46:08.482Z,20.31
2018-04-27T10:48:35.935Z,21.34
2018-04-27T10:51:03.414Z,20.57
2018-04-27T10:53:30.864Z,21.07
2018-04-27T10:55:58.320Z,20.89
2018-04-27T10:58:25.805Z,21.62
2018-04-27T11:00:53.275Z,21.63
2018-04-27T11:03:20.747Z,21.94
2018-04-27T11:05:48.209Z,21.61
2018-04-27T11:08:15.659Z,21.33
2018-04-27T11:10:43.127Z,21.22
2018-04-27T11:13:10.594Z,21.66
2018-04-27T11:15:38.069Z,21.63
2018-04-27T11:18:05.540Z,21.88
2018-04-27T11:20:33.019Z,22.68
2018-04-27T11:23:00.481Z,22.29
2018-04-27T11:25:27.939Z,21.80
2018-04-27T11:27:55.423Z,22.82
2018-04-27T11:30:22.878Z,22.68
2018-04-27T11:32:50.361Z,23.47
2018-04-27T11:35:17.883Z,23.37
2018-04-27T11:37:45.328Z,23.65
2018-04-27T11:40:12.780Z,22.80
2018-04-27T11:42:40.239Z,23.92
2018-04-27T11:45:07.720Z,22.22
2018-04-27T11:47:35.182Z,23.66
2018-04-27T11:50:02.662Z,24.70
2018-04-27T11:52:30.129Z,23.82
2018-04-27T11:54:57.635Z,22.83
2018-04-27T11:57:25.099Z,22.74
2018-04-27T11:59:54.965Z,22.96
2018-04-27T12:02:22.446Z,24.58
2018-04-27T12:04:49.906Z,25.01
2018-04-27T12:07:17.396Z,27.18
2018-04-27T12:09:44.851Z,25.81
2018-04-27T12:12:12.311Z,26.75
2018-04-27T12:14:39.791Z,25.55
2018-04-27T12:17:07.241Z,24.49
2018-04-27T12:19:34.724Z,26.47
2018-04-27T12:22:02.209Z,26.52
2018-04-27T12:24:29.677Z,27.53
2018-04-27T12:26:57.148Z,28.41
2018-04-27T12:29:24.604Z,28.38
2018-04-27T12:31:52.204Z,28.72
2018-04-27T12:34:19.555Z,28.19
2018-04-27T12:36:47.004Z,27.50
2018-04-27T12:39:14.472Z,26.11
2018-04-27T12:41:41.924Z,28.08
2018-04-27T12:44:09.400Z,28.08
2018-04-27T12:46:36.852Z,29.78
2018-04-27T12:49:04.316Z,27.64
2018-04-27T12:51:31.794Z,27.09
2018-04-27T12:53:59.254Z,25.62
2018-04-27T12:56:26.731Z,27.32
2018-04-27T12:58:54.197Z,26.26
2018-04-27T13:01:21.668Z,27.90
2018-04-27T13:03:49.133Z,26.17
2018-04-27T13:06:16.605Z,25.14
2018-04-27T13:08:44.082Z,25.67
2018-04-27T13:11:11.537Z,26.11
2018-04-27T13:13:39.017Z,25.82
2018-04-27T13:16:06.483Z,25.23
2018-04-27T13:18:33.947Z,25.15
2018-04-27T13:21:01.401Z,26.70
2018-04-27T13:23:28.864Z,26.87
2018-04-27T13:25:56.348Z,26.85
2018-04-27T13:28:23.808Z,27.95
2018-04-27T13:30:51.424Z,26.50
2018-04-27T13:33:18.875Z,26.23
2018-04-27T13:35:46.371Z,27.75
2018-04-27T13:38:14.590Z,27.17
2018-04-27T13:40:42.047Z,25.96
2018-04-27T13:43:09.524Z,27.28
2018-04-27T13:45:37.023Z,27.24
2018-04-27T13:48:04.465Z,26.77
2018-04-27T13:50:31.952Z,25.47
2018-04-27T13:52:59.405Z,27.43
2018-04-27T13:55:26.880Z,28.29
2018-04-27T13:57:54.344Z,27.61
2018-04-27T14:00:21.857Z,27.50
2018-04-27T14:02:49.368Z,27.26
2018-04-27T14:05:16.830Z,27.44
2018-04-27T14:07:44.292Z,27.57
2018-04-27T14:10:11.774Z,27.17
2018-04-27T14:12:39.223Z,28.15
2018-04-27T14:15:06.717Z,28.19
2018-04-27T14:17:34.177Z,28.72
2018-04-27T14:20:01.745Z,28.17
2018-04-27T14:22:29.140Z,28.75
2018-04-27T14:24:57.499Z,27.71
2018-04-27T14:27:24.961Z,27.18
2018-04-27T14:29:52.433Z,25.81
2018-04-27T14:32:19.895Z,26.85
2018-04-27T14:34:47.372Z,28.03
2018-04-27T14:37:14.831Z,27.38
2018-04-27T14:39:42.303Z,26.38
2018-04-27T14:42:09.919Z,27.94
2018-04-27T14:44:37.400Z,27.05
2018-04-27T14:47:04.863Z,27.95
2018-04-27T14:49:32.344Z,28.08
2018-04-27T14:51:59.791Z,28.91
2018-04-27T14:54:27.254Z,28.85
2018-04-27T14:56:54.733Z,26.51
2018-04-27T14:59:22.184Z,25.47
2018-04-27T15:01:49.665Z,26.33
2018-04-27T15:04:17.124Z,26.74
2018-04-27T15:06:44.606Z,26.60
2018-04-27T15:09:12.062Z,27.94
2018-04-27T15:11:39.533Z,27.96
2018-04-27T15:14:06.991Z,28.39
2018-04-27T15:16:34.472Z,27.94
2018-04-27T15:19:01.923Z,28.15
2018-04-27T15:21:29.373Z,27.94
2018-04-27T15:23:56.858Z,28.88
2018-04-27T15:26:24.324Z,28.61
2018-04-27T15:28:51.805Z,27.38
2018-04-27T15:31:19.281Z,27.54
2018-04-27T15:33:46.829Z,28.10
2018-04-27T15:36:14.278Z,28.03
2018-04-27T15:38:41.742Z,29.12
2018-04-27T15:41:09.377Z,28.42
2018-04-27T15:43:36.828Z,27.72
2018-04-27T15:46:04.280Z,27.79
2018-04-27T15:48:31.757Z,27.18
2018-04-27T15:50:59.224Z,29.27
2018-04-27T15:53:26.706Z,29.23
2018-04-27T15:55:54.152Z,29.24
2018-04-27T15:58:21.616Z,29.27
2018-04-27T16:00:49.088Z,27.90
2018-04-27T16:03:16.557Z,28.03
2018-04-27T16:05:44.036Z,28.77
2018-04-27T16:08:11.492Z,27.79
2018-04-27T16:10:38.972Z,28.59
2018-04-27T16:13:10.399Z,29.30
2018-04-27T16:15:37.860Z,29.21
2018-04-27T16:18:05.337Z,29.65
2018-04-27T16:20:32.796Z,29.35
2018-04-27T16:23:00.281Z,27.70
2018-04-27T16:25:27.744Z,28.70
2018-04-27T16:27:55.200Z,29.49
2018-04-27T16:30:22.684Z,28.16
2018-04-27T16:32:50.148Z,28.65
2018-04-27T16:35:17.635Z,29.50
2018-04-27T16:37:45.086Z,28.55
2018-04-27T16:40:12.547Z,28.41
2018-04-27T16:42:40.018Z,28.70
2018-04-27T16:45:07.487Z,28.73
2018-04-27T16:47:34.984Z,29.28
2018-04-27T16:50:02.464Z,28.92
2018-04-27T16:52:29.928Z,28.96
2018-04-27T16:54:57.409Z,29.72
2018-04-27T16:57:24.868Z,29.12
2018-04-27T16:59:52.372Z,27.45
2018-04-27T17:02:19.843Z,28.04
2018-04-27T17:04:47.301Z,26.70
2018-04-27T17:07:14.781Z,27.57
2018-04-27T17:09:42.244Z,27.03
2018-04-27T17:12:09.774Z,27.86
2018-04-27T17:14:37.233Z,27.55
2018-04-27T17:17:04.700Z,27.81
2018-04-27T17:19:32.192Z,28.30
2018-04-27T17:21:59.644Z,26.64
2018-04-27T17:24:27.119Z,27.10
2018-04-27T17:26:54.586Z,27.78
2018-04-27T17:29:22.829Z,27.46
2018-04-27T17:31:50.279Z,27.36
2018-04-27T17:34:17.746Z,25.75
2018-04-27T17:36:45.294Z,26.67
2018-04-27T17:39:12.719Z,26.26
2018-04-27T17:41:40.196Z,25.47
2018-04-27T17:44:07.651Z,25.68
2018-04-27T17:46:35.142Z,25.63
2018-04-27T17:49:02.660Z,24.65
2018-04-27T17:51:30.120Z,24.30
2018-04-27T17:53:57.597Z,23.22
2018-04-27T17:56:25.060Z,21.97
2018-04-27T17:58:52.538Z,21.29
2018-04-27T18:01:20.001Z,21.18
2018-04-27T18:03:47.459Z,20.89
2018-04-27T18:06:15.183Z,21.22
2018-04-27T18:08:42.633Z,20.50
2018-04-27T18:11:10.125Z,20.53
2018-04-27T18:13:37.583Z,20.28
2018-04-27T18:16:05.050Z,20.30
2018-04-27T18:18:32.531Z,20.25
2018-04-27T18:20:59.996Z,20.10
2018-04-27T18:23:27.483Z,19.91
2018-04-27T18:25:54.937Z,19.71
2018-04-27T18:28:22.407Z,19.75
2018-04-27T18:30:49.889Z,19.49
2018-04-27T18:33:17.418Z,19.58
2018-04-27T18:35:44.860Z,19.26
2018-04-27T18:38:12.336Z,19.22
2018-04-27T18:40:39.793Z,19.39
2018-04-27T18:43:07.269Z,19.35
2018-04-27T18:45:34.728Z,19.11
2018-04-27T18:48:08.836Z,18.98
2018-04-27T18:50:36.300Z,19.00
2018-04-27T18:53:03.787Z,18.85
2018-04-27T18:55:31.248Z,19.02
2018-04-27T18:57:58.699Z,18.98
2018-04-27T19:00:26.909Z,18.76
2018-04-27T19:02:54.369Z,18.87
2018-04-27T19:05:22.212Z,18.70
2018-04-27T19:07:49.673Z,18.51
2018-04-27T19:10:17.145Z,18.64
2018-04-27T19:12:44.623Z,18.43
2018-04-27T19:15:12.313Z,18.65
2018-04-27T19:17:40.068Z,18.32
2018-04-27T19:20:07.588Z,18.42
2018-04-27T19:22:35.054Z,18.41
2018-04-27T19:25:02.532Z,18.24
2018-04-27T19:27:29.989Z,18.55
2018-04-27T19:29:57.472Z,18.30
2018-04-27T19:32:24.932Z,18.16
2018-04-27T19:34:52.480Z,18.11
2018-04-27T19:37:19.962Z,18.05
2018-04-27T19:39:47.424Z,18.13
2018-04-27T19:42:15.107Z,17.97
2018-04-27T19:44:42.569Z,18.14
2018-04-27T19:47:10.022Z,18.11
2018-04-27T19:49:37.496Z,18.08
2018-04-27T19:52:04.947Z,17.65
2018-04-27T19:54:32.422Z,17.70
2018-04-27T19:56:59.881Z,18.04
2018-04-27T19:59:27.336Z,17.91
2018-04-27T20:01:54.820Z,17.58
2018-04-27T20:04:22.287Z,17.62
2018-04-27T20:06:49.794Z,17.54
2018-04-27T20:09:17.251Z,17.63
2018-04-27T20:11:44.806Z,17.37
2018-04-27T20:17:06.207Z,17.10
2018-04-27T20:19:38.122Z,16.97
2018-04-27T20:22:22.384Z,16.92
2018-04-27T20:24:49.840Z,17.04
2018-04-27T20:27:18.920Z,17.05
2018-04-27T20:29:46.398Z,17.02
2018-04-27T20:32:13.857Z,16.87
2018-04-27T20:34:41.331Z,16.84
2018-04-27T20:37:08.883Z,16.76
2018-04-27T20:39:36.327Z,16.68
2018-04-27T20:42:08.314Z,16.54
2018-04-27T20:44:35.796Z,16.44
2018-04-27T20:47:03.277Z,16.63
2018-04-27T20:49:30.743Z,16.32
2018-04-27T20:51:58.243Z,16.42
2018-04-27T20:54:25.711Z,16.38
2018-04-27T20:56:53.172Z,16.33
2018-04-27T20:59:20.654Z,16.25
2018-04-27T21:01:48.116Z,15.94
2018-04-27T21:04:15.584Z,16.01
2018-04-27T21:06:43.059Z,16.07
2018-04-27T21:09:10.531Z,16.25
2018-04-27T21:11:40.892Z,15.96
2018-04-27T21:14:08.378Z,15.90
2018-04-27T21:16:35.848Z,15.71
2018-04-27T21:19:03.305Z,15.78
2018-04-27T21:21:30.789Z,15.64
2018-04-27T21:23:58.264Z,15.73
2018-04-27T21:26:26.510Z,15.74
2018-04-27T21:28:54.400Z,15.64
2018-04-27T21:31:21.864Z,15.56
2018-04-27T21:33:51.128Z,15.74
2018-04-27T21:36:18.639Z,15.64
2018-04-27T21:38:51.659Z,15.14
2018-04-27T21:44:30.103Z,15.33
2018-04-27T21:47:02.951Z,15.33
2018-04-27T21:49:30.413Z,15.22
2018-04-27T21:51:58.625Z,15.15
2018-04-27T21:54:30.509Z,15.25
2018-04-27T21:57:03.720Z,15.18
2018-04-27T21:59:42.594Z,15.14
2018-04-27T22:02:13.499Z,14.93
2018-04-27T22:04:41.796Z,14.98
2018-04-27T22:07:20.167Z,15.06
2018-04-27T22:09:49.543Z,14.95
2018-04-27T22:12:19.775Z,14.82
2018-04-27T22:14:47.259Z,14.60
2018-04-27T22:17:20.568Z,14.65
2018-04-27T22:19:48.047Z,14.70
2018-04-27T22:22:16.435Z,14.82
2018-04-27T22:25:03.745Z,14.88
2018-04-27T22:27:32.140Z,14.77
2018-04-27T22:30:01.337Z,14.81
2018-04-27T22:32:30.051Z,14.67
2018-04-27T22:34:59.439Z,14.57
2018-04-27T22:37:26.924Z,14.38
2018-04-27T22:40:06.099Z,14.28
2018-04-27T22:45:35.765Z,14.21
2018-04-27T22:51:03.818Z,14.11
2018-04-27T22:53:34.096Z,14.21
2018-04-27T22:56:01.584Z,14.18
2018-04-27T22:58:29.056Z,14.17
2018-04-27T23:00:57.424Z,14.14
2018-04-27T23:03:30.656Z,13.64
2018-04-27T23:05:58.113Z,13.55
2018-04-27T23:08:25.576Z,13.86
2018-04-27T23:10:59.776Z,13.86
2018-04-27T23:13:44.658Z,13.86
2018-04-27T23:16:12.133Z,13.90
2018-04-27T23:18:43.084Z,13.66
2018-04-27T23:21:12.353Z,13.40
2018-04-27T23:23:39.813Z,13.24
2018-04-27T23:26:07.355Z,13.36
2018-04-27T23:28:34.828Z,13.59
2018-04-27T23:31:02.285Z,13.70
2018-04-27T23:33:29.772Z,13.56
2018-04-27T23:35:58.035Z,13.46
2018-04-27T23:38:25.936Z,13.54
2018-04-27T23:40:53.392Z,13.43
2018-04-27T23:43:20.868Z,13.45
2018-04-27T23:45:48.343Z,13.46
2018-04-27T23:48:16.605Z,13.46
2018-04-27T23:50:48.953Z,13.39
2018-04-27T23:53:16.418Z,13.37
2018-04-27T23:55:43.875Z,13.17
2018-04-27T23:58:16.775Z,12.75
